createdAt,value
2016-04-16T00:00:57.711Z,996.94
2016-04-16T00:01:57.668Z,996.93
2016-04-16T00:02:57.608Z,996.9
2016-04-16T00:03:57.580Z,996.9
2016-04-16T00:04:57.723Z,996.85
2016-04-16T00:05:57.475Z,996.83
2016-04-16T00:06:57.510Z,996.79
2016-04-16T00:07:57.387Z,996.84
2016-04-16T00:08:57.343Z,996.81
2016-04-16T00:09:57.283Z,996.8
2016-04-16T00:11:00.238Z,996.77
2016-04-16T00:11:57.195Z,996.77
2016-04-16T00:13:00.150Z,996.8
2016-04-16T00:13:57.090Z,996.79
2016-04-16T00:14:57.062Z,996.71
2016-04-16T00:15:57.002Z,996.72
2016-04-16T00:16:56.959Z,996.73
2016-04-16T00:17:56.915Z,996.7
2016-04-16T00:19:05.870Z,996.68
2016-04-16T00:19:56.920Z,996.75
2016-04-16T00:20:56.765Z,996.72
2016-04-16T00:21:56.722Z,996.71
2016-04-16T00:22:56.678Z,996.67
2016-04-16T00:23:56.634Z,996.67
2016-04-16T00:24:56.590Z,996.68
2016-04-16T00:25:56.545Z,996.71
2016-04-16T00:26:56.486Z,996.72
2016-04-16T00:27:56.441Z,996.66
2016-04-16T00:28:59.397Z,996.64
2016-04-16T00:29:56.353Z,996.68
2016-04-16T00:30:56.308Z,996.66
2016-04-16T00:31:59.264Z,996.68
2016-04-16T00:32:56.219Z,996.64
2016-04-16T00:33:56.160Z,996.65
2016-04-16T00:34:56.116Z,996.71
2016-04-16T00:35:57.666Z,996.68
2016-04-16T00:36:56.044Z,996.62
2016-04-16T00:37:55.983Z,996.62
2016-04-16T00:38:55.924Z,996.59
2016-04-16T00:39:55.895Z,996.58
2016-04-16T00:40:55.835Z,996.58
2016-04-16T00:41:55.791Z,996.6
2016-04-16T00:42:55.746Z,996.6
2016-04-16T00:43:55.702Z,996.61
2016-04-16T00:44:55.658Z,996.6
2016-04-16T00:45:55.817Z,996.62
2016-04-16T00:46:55.554Z,996.61
2016-04-16T00:47:55.526Z,996.64
2016-04-16T00:48:55.466Z,996.65
2016-04-16T00:49:58.423Z,996.62
2016-04-16T00:50:55.378Z,996.59
2016-04-16T00:51:55.318Z,996.64
2016-04-16T00:52:55.273Z,996.6
2016-04-16T00:53:55.230Z,996.61
2016-04-16T00:54:55.201Z,996.62
2016-04-16T00:55:58.157Z,996.59
2016-04-16T00:56:58.098Z,996.57
2016-04-16T00:57:58.053Z,996.56
2016-04-16T00:58:57.993Z,996.57
2016-04-16T00:59:54.964Z,996.55
2016-04-16T01:00:54.905Z,996.54
2016-04-16T01:01:54.860Z,996.55
2016-04-16T01:02:54.816Z,996.57
2016-04-16T01:03:54.756Z,996.57
2016-04-16T01:04:54.728Z,996.55
2016-04-16T01:05:54.669Z,996.59
2016-04-16T01:06:57.858Z,996.61
2016-04-16T01:07:54.596Z,996.58
2016-04-16T01:08:54.535Z,996.56
2016-04-16T01:09:54.491Z,996.58
2016-04-16T01:10:54.432Z,996.6
2016-04-16T01:11:54.387Z,996.56
2016-04-16T01:12:54.343Z,996.53
2016-04-16T01:13:54.314Z,996.57
2016-04-16T01:14:54.255Z,996.56
2016-04-16T01:15:57.210Z,996.55
2016-04-16T01:16:57.166Z,996.53
2016-04-16T01:17:54.122Z,996.52
2016-04-16T01:18:54.062Z,996.53
2016-04-16T01:19:54.018Z,996.55
2016-04-16T01:20:53.973Z,996.54
2016-04-16T01:21:53.930Z,996.57
2016-04-16T01:22:53.886Z,996.55
2016-04-16T01:23:53.826Z,996.57
2016-04-16T01:24:53.781Z,996.57
2016-04-16T01:25:53.737Z,996.58
2016-04-16T01:26:53.692Z,996.55
2016-04-16T01:27:53.649Z,996.58
2016-04-16T01:28:53.589Z,996.52
2016-04-16T01:29:53.545Z,996.54
2016-04-16T01:30:53.500Z,996.48
2016-04-16T01:31:53.456Z,996.52
2016-04-16T01:32:53.413Z,996.51
2016-04-16T01:33:53.352Z,996.49
2016-04-16T01:34:53.308Z,996.47
2016-04-16T01:35:53.264Z,996.45
2016-04-16T01:36:53.219Z,996.46
2016-04-16T01:37:53.176Z,996.45
2016-04-16T01:38:53.132Z,996.43
2016-04-16T01:39:53.087Z,996.44
2016-04-16T01:40:53.043Z,996.41
2016-04-16T01:41:55.983Z,996.43
2016-04-16T01:42:56.157Z,996.4
2016-04-16T01:43:52.895Z,996.39
2016-04-16T01:44:53.054Z,996.42
2016-04-16T01:45:52.807Z,996.36
2016-04-16T01:46:52.747Z,996.36
2016-04-16T01:47:52.922Z,996.32
2016-04-16T01:48:55.674Z,996.34
2016-04-16T01:49:55.630Z,996.32
2016-04-16T01:50:55.570Z,996.36
2016-04-16T01:51:55.526Z,996.32
2016-04-16T01:52:52.481Z,996.33
2016-04-16T01:53:52.422Z,996.3
2016-04-16T01:54:52.378Z,996.27
2016-04-16T01:55:52.334Z,996.31
2016-04-16T01:56:52.290Z,996.32
2016-04-16T01:57:55.245Z,996.25
2016-04-16T01:58:55.217Z,996.3
2016-04-16T01:59:55.156Z,996.28
2016-04-16T02:00:55.113Z,996.25
2016-04-16T02:01:52.068Z,996.23
2016-04-16T02:02:52.012Z,996.22
2016-04-16T02:03:51.968Z,996.22
2016-04-16T02:04:51.908Z,996.2
2016-04-16T02:05:51.864Z,996.19
2016-04-16T02:06:51.820Z,996.23
2016-04-16T02:07:51.792Z,996.23
2016-04-16T02:08:51.731Z,996.2
2016-04-16T02:09:51.687Z,996.22
2016-04-16T02:10:54.644Z,996.19
2016-04-16T02:11:51.631Z,996.17
2016-04-16T02:12:51.556Z,996.22
2016-04-16T02:13:51.495Z,996.18
2016-04-16T02:14:51.451Z,996.16
2016-04-16T02:15:51.407Z,996.15
2016-04-16T02:16:51.363Z,996.18
2016-04-16T02:17:51.302Z,996.14
2016-04-16T02:18:51.258Z,996.14
2016-04-16T02:19:51.214Z,996.17
2016-04-16T02:20:51.171Z,996.21
2016-04-16T02:21:51.112Z,996.19
2016-04-16T02:22:51.085Z,996.18
2016-04-16T02:23:51.024Z,996.15
2016-04-16T02:24:53.980Z,996.19
2016-04-16T02:25:53.935Z,996.19
2016-04-16T02:26:51.095Z,996.18
2016-04-16T02:27:53.832Z,996.18
2016-04-16T02:28:50.787Z,996.15
2016-04-16T02:29:53.744Z,996.17
2016-04-16T02:30:50.699Z,996.17
2016-04-16T02:31:50.656Z,996.2
2016-04-16T02:32:50.611Z,996.13
2016-04-16T02:33:53.598Z,996.14
2016-04-16T02:34:50.506Z,996.14
2016-04-16T02:35:53.478Z,996.18
2016-04-16T02:36:50.419Z,996.08
2016-04-16T02:37:53.390Z,996.1
2016-04-16T02:38:50.534Z,996.08
2016-04-16T02:39:50.286Z,996.04
2016-04-16T02:40:50.242Z,996.04
2016-04-16T02:41:50.197Z,996.03
2016-04-16T02:42:50.138Z,996.05
2016-04-16T02:43:50.093Z,996.05
2016-04-16T02:44:50.090Z,996.06
2016-04-16T02:45:53.089Z,996.06
2016-04-16T02:46:50.087Z,996.01
2016-04-16T02:47:50.071Z,995.99
2016-04-16T02:48:50.069Z,995.99
2016-04-16T02:49:50.041Z,996.01
2016-04-16T02:50:53.012Z,995.93
2016-04-16T02:51:52.983Z,995.92
2016-04-16T02:52:49.954Z,995.9
2016-04-16T02:53:49.926Z,995.93
2016-04-16T02:54:52.888Z,995.95
2016-04-16T02:55:52.833Z,995.96
2016-04-16T02:56:49.795Z,995.88
2016-04-16T02:57:49.772Z,995.88
2016-04-16T02:58:49.717Z,995.88
2016-04-16T02:59:49.676Z,995.8
2016-04-16T03:00:49.618Z,995.84
2016-04-16T03:01:52.575Z,995.79
2016-04-16T03:02:49.534Z,995.81
2016-04-16T03:03:49.491Z,995.8
2016-04-16T03:04:49.432Z,995.79
2016-04-16T03:05:49.389Z,995.78
2016-04-16T03:06:49.345Z,995.83
2016-04-16T03:07:49.302Z,995.83
2016-04-16T03:08:52.274Z,995.89
2016-04-16T03:09:49.215Z,995.78
2016-04-16T03:10:49.171Z,995.84
2016-04-16T03:11:52.112Z,995.82
2016-04-16T03:12:52.084Z,995.81
2016-04-16T03:13:49.024Z,995.82
2016-04-16T03:14:48.980Z,995.82
2016-04-16T03:15:48.920Z,995.83
2016-04-16T03:16:48.892Z,995.84
2016-04-16T03:17:49.050Z,995.83
2016-04-16T03:18:51.803Z,995.83
2016-04-16T03:19:48.743Z,995.86
2016-04-16T03:20:48.903Z,995.9
2016-04-16T03:21:51.655Z,995.86
2016-04-16T03:22:48.595Z,995.91
2016-04-16T03:23:48.957Z,995.88
2016-04-16T03:24:48.507Z,995.94
2016-04-16T03:25:48.477Z,995.92
2016-04-16T03:26:48.621Z,995.96
2016-04-16T03:27:48.374Z,995.96
2016-04-16T03:28:48.330Z,996
2016-04-16T03:29:48.271Z,996
2016-04-16T03:30:51.226Z,995.97
2016-04-16T03:31:48.182Z,995.94
2016-04-16T03:32:48.138Z,995.94
2016-04-16T03:33:48.093Z,995.98
2016-04-16T03:34:48.268Z,995.96
2016-04-16T03:35:47.989Z,995.99
2016-04-16T03:36:47.960Z,995.9
2016-04-16T03:37:47.901Z,995.99
2016-04-16T03:38:50.857Z,995.99
2016-04-16T03:39:47.812Z,996.04
2016-04-16T03:40:47.768Z,995.96
2016-04-16T03:41:47.724Z,995.96
2016-04-16T03:42:47.664Z,995.94
2016-04-16T03:43:47.621Z,995.98
2016-04-16T03:44:47.592Z,995.96
2016-04-16T03:45:47.532Z,995.96
2016-04-16T03:46:47.487Z,996.03
2016-04-16T03:47:47.647Z,996
2016-04-16T03:48:47.400Z,996.01
2016-04-16T03:49:50.370Z,996
2016-04-16T03:50:47.311Z,996
2016-04-16T03:51:47.250Z,996
2016-04-16T03:52:47.208Z,996.04
2016-04-16T03:53:47.163Z,996.07
2016-04-16T03:54:50.322Z,996.05
2016-04-16T03:55:47.058Z,996.1
2016-04-16T03:56:47.014Z,996.06
2016-04-16T03:57:46.971Z,996.03
2016-04-16T03:58:46.926Z,996.11
2016-04-16T03:59:46.882Z,996.04
2016-04-16T04:00:46.821Z,996.05
2016-04-16T04:01:46.793Z,996.07
2016-04-16T04:02:46.734Z,996.04
2016-04-16T04:03:46.690Z,996.1
2016-04-16T04:04:46.646Z,996.04
2016-04-16T04:05:49.601Z,996.03
2016-04-16T04:06:49.557Z,996.06
2016-04-16T04:07:46.497Z,996.06
2016-04-16T04:08:46.453Z,996.12
2016-04-16T04:09:46.409Z,996.11
2016-04-16T04:10:46.349Z,996.12
2016-04-16T04:11:46.305Z,996.09
2016-04-16T04:12:46.276Z,996.02
2016-04-16T04:13:46.232Z,996.12
2016-04-16T04:14:46.187Z,996.07
2016-04-16T04:15:46.128Z,996.15
2016-04-16T04:16:46.084Z,996.14
2016-04-16T04:17:46.039Z,996.17
2016-04-16T04:18:45.995Z,996.19
2016-04-16T04:19:45.951Z,996.13
2016-04-16T04:20:45.892Z,996.18
2016-04-16T04:21:45.848Z,996.16
2016-04-16T04:22:45.803Z,996.23
2016-04-16T04:23:45.759Z,996.21
2016-04-16T04:24:48.714Z,996.21
2016-04-16T04:25:45.671Z,996.19
2016-04-16T04:26:45.610Z,996.23
2016-04-16T04:27:45.566Z,996.28
2016-04-16T04:28:45.522Z,996.3
2016-04-16T04:29:45.478Z,996.29
2016-04-16T04:30:48.435Z,996.3
2016-04-16T04:31:48.374Z,996.33
2016-04-16T04:32:45.330Z,996.31
2016-04-16T04:33:45.285Z,996.33
2016-04-16T04:34:45.242Z,996.35
2016-04-16T04:35:45.198Z,996.41
2016-04-16T04:36:45.154Z,996.4
2016-04-16T04:37:45.125Z,996.4
2016-04-16T04:38:45.049Z,996.47
2016-04-16T04:39:45.021Z,996.45
2016-04-16T04:40:44.961Z,996.54
2016-04-16T04:41:44.917Z,996.58
2016-04-16T04:42:44.856Z,996.6
2016-04-16T04:43:44.813Z,996.7
2016-04-16T04:44:44.768Z,996.68
2016-04-16T04:45:44.725Z,996.69
2016-04-16T04:46:44.681Z,996.7
2016-04-16T04:47:44.839Z,996.68
2016-04-16T04:48:44.592Z,996.73
2016-04-16T04:49:44.531Z,996.76
2016-04-16T04:50:47.566Z,996.78
2016-04-16T04:51:44.444Z,996.76
2016-04-16T04:52:44.400Z,996.83
2016-04-16T04:53:44.356Z,996.83
2016-04-16T04:54:44.311Z,996.84
2016-04-16T04:55:44.252Z,996.79
2016-04-16T04:56:47.207Z,996.85
2016-04-16T04:57:44.178Z,996.8
2016-04-16T04:58:44.118Z,996.86
2016-04-16T04:59:44.075Z,996.81
2016-04-16T05:00:44.030Z,996.86
2016-04-16T05:01:43.971Z,996.84
2016-04-16T05:02:43.927Z,996.82
2016-04-16T05:03:43.898Z,996.78
2016-04-16T05:04:43.838Z,996.77
2016-04-16T05:05:43.793Z,996.77
2016-04-16T05:06:43.749Z,996.83
2016-04-16T05:07:43.705Z,996.79
2016-04-16T05:08:43.649Z,996.68
2016-04-16T05:09:43.604Z,996.75
2016-04-16T05:10:43.560Z,996.82
2016-04-16T05:11:43.515Z,996.72
2016-04-16T05:12:43.457Z,996.77
2016-04-16T05:13:43.412Z,996.77
2016-04-16T05:14:46.368Z,996.76
2016-04-16T05:15:43.324Z,996.78
2016-04-16T05:16:43.279Z,996.74
2016-04-16T05:17:43.438Z,996.73
2016-04-16T05:18:43.175Z,996.77
2016-04-16T05:19:43.147Z,996.74
2016-04-16T05:20:43.087Z,996.8
2016-04-16T05:21:43.043Z,996.72
2016-04-16T05:22:43.015Z,996.68
2016-04-16T05:23:42.955Z,996.71
2016-04-16T05:24:42.911Z,996.77
2016-04-16T05:25:42.851Z,996.75
2016-04-16T05:26:42.806Z,996.75
2016-04-16T05:27:42.761Z,996.82
2016-04-16T05:28:42.734Z,996.81
2016-04-16T05:29:42.689Z,996.79
2016-04-16T05:30:42.630Z,996.83
2016-04-16T05:31:42.789Z,996.86
2016-04-16T05:32:45.558Z,996.84
2016-04-16T05:33:42.482Z,996.8
2016-04-16T05:34:42.437Z,996.84
2016-04-16T05:35:45.393Z,996.86
2016-04-16T05:36:42.349Z,996.82
2016-04-16T05:37:42.305Z,996.85
2016-04-16T05:38:42.245Z,996.89
2016-04-16T05:39:42.404Z,996.9
2016-04-16T05:40:42.157Z,996.91
2016-04-16T05:41:42.316Z,996.89
2016-04-16T05:42:42.068Z,996.92
2016-04-16T05:43:42.009Z,996.92
2016-04-16T05:44:41.964Z,996.97
2016-04-16T05:45:41.920Z,996.94
2016-04-16T05:46:41.892Z,996.97
2016-04-16T05:47:41.831Z,996.95
2016-04-16T05:48:41.773Z,996.97
2016-04-16T05:49:41.743Z,997.05
2016-04-16T05:50:41.684Z,996.99
2016-04-16T05:51:41.639Z,996.99
2016-04-16T05:52:44.611Z,996.96
2016-04-16T05:53:44.551Z,997.01
2016-04-16T05:54:44.522Z,997
2016-04-16T05:55:41.447Z,996.97
2016-04-16T05:56:41.419Z,996.95
2016-04-16T05:57:41.358Z,996.97
2016-04-16T05:58:41.314Z,996.97
2016-04-16T05:59:41.269Z,996.99
2016-04-16T06:00:41.226Z,996.97
2016-04-16T06:01:44.385Z,997.01
2016-04-16T06:02:41.122Z,997
2016-04-16T06:03:41.077Z,996.96
2016-04-16T06:04:41.033Z,996.97
2016-04-16T06:05:40.989Z,996.95
2016-04-16T06:06:40.929Z,996.94
2016-04-16T06:07:40.901Z,996.98
2016-04-16T06:08:40.857Z,996.97
2016-04-16T06:09:43.812Z,997
2016-04-16T06:10:40.752Z,997.02
2016-04-16T06:11:43.709Z,997.02
2016-04-16T06:12:40.665Z,997.04
2016-04-16T06:13:40.605Z,997.06
2016-04-16T06:14:40.560Z,997.08
2016-04-16T06:15:40.532Z,997.03
2016-04-16T06:16:40.473Z,997.07
2016-04-16T06:17:43.460Z,997.11
2016-04-16T06:18:40.384Z,997.05
2016-04-16T06:19:43.340Z,997.08
2016-04-16T06:20:43.295Z,997.06
2016-04-16T06:21:40.236Z,997.1
2016-04-16T06:22:40.191Z,997.1
2016-04-16T06:23:40.351Z,997.04
2016-04-16T06:24:40.103Z,997.07
2016-04-16T06:25:43.059Z,997.06
2016-04-16T06:26:40.000Z,997.06
2016-04-16T06:27:39.955Z,997.04
2016-04-16T06:28:42.910Z,997.09
2016-04-16T06:29:42.867Z,997.09
2016-04-16T06:30:39.806Z,997.01
2016-04-16T06:31:39.778Z,997.05
2016-04-16T06:32:39.718Z,997.06
2016-04-16T06:33:39.674Z,997.05
2016-04-16T06:34:39.630Z,997.04
2016-04-16T06:35:39.585Z,997.06
2016-04-16T06:36:39.542Z,997.02
2016-04-16T06:37:39.497Z,997.13
2016-04-16T06:38:39.453Z,997.11
2016-04-16T06:39:39.393Z,997.14
2016-04-16T06:40:39.349Z,997.1
2016-04-16T06:41:39.305Z,997.13
2016-04-16T06:42:39.261Z,997.12
2016-04-16T06:43:39.217Z,997.1
2016-04-16T06:44:39.173Z,997.13
2016-04-16T06:45:39.113Z,997.06
2016-04-16T06:46:39.068Z,997.13
2016-04-16T06:47:39.024Z,997.1
2016-04-16T06:48:38.980Z,997.16
2016-04-16T06:49:38.936Z,997.17
2016-04-16T06:50:38.907Z,997.2
2016-04-16T06:51:38.832Z,997.2
2016-04-16T06:52:38.788Z,997.23
2016-04-16T06:53:38.743Z,997.24
2016-04-16T06:54:38.700Z,997.3
2016-04-16T06:55:38.656Z,997.2
2016-04-16T06:56:41.611Z,997.17
2016-04-16T06:57:38.551Z,997.19
2016-04-16T06:58:38.507Z,997.2
2016-04-16T06:59:38.463Z,997.22
2016-04-16T07:00:38.419Z,997.22
2016-04-16T07:01:38.578Z,997.29
2016-04-16T07:02:38.314Z,997.33
2016-04-16T07:03:41.270Z,997.3
2016-04-16T07:04:38.227Z,997.34
2016-04-16T07:05:38.385Z,997.31
2016-04-16T07:06:38.138Z,997.35
2016-04-16T07:07:38.078Z,997.32
2016-04-16T07:08:38.252Z,997.4
2016-04-16T07:09:37.990Z,997.39
2016-04-16T07:10:37.945Z,997.46
2016-04-16T07:11:37.902Z,997.39
2016-04-16T07:12:40.858Z,997.39
2016-04-16T07:13:37.812Z,997.4
2016-04-16T07:14:37.769Z,997.35
2016-04-16T07:15:37.709Z,997.36
2016-04-16T07:16:37.665Z,997.44
2016-04-16T07:17:37.621Z,997.46
2016-04-16T07:18:37.576Z,997.44
2016-04-16T07:19:37.532Z,997.46
2016-04-16T07:20:37.472Z,997.53
2016-04-16T07:21:37.428Z,997.45
2016-04-16T07:22:37.587Z,997.48
2016-04-16T07:23:37.339Z,997.47
2016-04-16T07:24:37.295Z,997.56
2016-04-16T07:25:37.251Z,997.58
2016-04-16T07:26:37.192Z,997.56
2016-04-16T07:27:37.163Z,997.53
2016-04-16T07:28:37.103Z,997.54
2016-04-16T07:29:37.059Z,997.6
2016-04-16T07:30:37.015Z,997.56
2016-04-16T07:31:36.971Z,997.55
2016-04-16T07:32:36.927Z,997.51
2016-04-16T07:33:36.883Z,997.56
2016-04-16T07:34:36.822Z,997.59
2016-04-16T07:35:36.778Z,997.58
2016-04-16T07:36:36.734Z,997.63
2016-04-16T07:37:39.690Z,997.64
2016-04-16T07:38:36.646Z,997.63
2016-04-16T07:39:36.585Z,997.64
2016-04-16T07:40:36.541Z,997.67
2016-04-16T07:41:36.498Z,997.6
2016-04-16T07:42:36.453Z,997.64
2016-04-16T07:43:36.409Z,997.62
2016-04-16T07:44:36.365Z,997.6
2016-04-16T07:45:36.321Z,997.55
2016-04-16T07:46:36.261Z,997.56
2016-04-16T07:47:36.218Z,997.61
2016-04-16T07:48:36.173Z,997.59
2016-04-16T07:49:36.129Z,997.57
2016-04-16T07:50:36.084Z,997.57
2016-04-16T07:51:36.040Z,997.57
2016-04-16T07:52:35.981Z,997.6
2016-04-16T07:53:35.937Z,997.62
2016-04-16T07:54:35.923Z,997.65
2016-04-16T07:55:35.848Z,997.69
2016-04-16T07:56:35.788Z,997.64
2016-04-16T07:57:35.963Z,997.78
2016-04-16T07:58:38.699Z,997.62
2016-04-16T07:59:35.655Z,997.64
2016-04-16T08:00:35.612Z,997.65
2016-04-16T08:01:35.567Z,997.63
2016-04-16T08:02:35.522Z,997.7
2016-04-16T08:03:38.478Z,997.64
2016-04-16T08:04:35.419Z,997.65
2016-04-16T08:05:38.375Z,997.71
2016-04-16T08:06:35.330Z,997.73
2016-04-16T08:07:35.286Z,997.75
2016-04-16T08:08:35.227Z,997.78
2016-04-16T08:09:35.183Z,997.72
2016-04-16T08:10:35.138Z,997.77
2016-04-16T08:11:38.110Z,997.76
2016-04-16T08:12:35.049Z,997.77
2016-04-16T08:13:35.193Z,997.81
2016-04-16T08:14:34.961Z,997.81
2016-04-16T08:15:34.901Z,997.77
2016-04-16T08:16:34.858Z,997.73
2016-04-16T08:17:34.818Z,997.73
2016-04-16T08:18:34.759Z,997.73
2016-04-16T08:19:34.730Z,997.84
2016-04-16T08:20:34.670Z,997.74
2016-04-16T08:21:37.641Z,997.75
2016-04-16T08:22:34.582Z,997.71
2016-04-16T08:23:37.537Z,997.76
2016-04-16T08:24:34.493Z,997.72
2016-04-16T08:25:34.636Z,997.7
2016-04-16T08:26:34.389Z,997.81
2016-04-16T08:27:34.345Z,997.73
2016-04-16T08:28:34.300Z,997.7
2016-04-16T08:29:34.241Z,997.71
2016-04-16T08:30:37.212Z,997.81
2016-04-16T08:31:34.153Z,997.8
2016-04-16T08:32:34.108Z,997.78
2016-04-16T08:33:34.080Z,997.8
2016-04-16T08:34:34.020Z,997.83
2016-04-16T08:35:33.960Z,997.83
2016-04-16T08:36:34.072Z,997.85
2016-04-16T08:37:33.872Z,997.82
2016-04-16T08:38:33.827Z,997.77
2016-04-16T08:39:33.783Z,997.83
2016-04-16T08:40:36.739Z,997.79
2016-04-16T08:41:36.710Z,997.81
2016-04-16T08:42:33.651Z,997.83
2016-04-16T08:43:33.591Z,997.82
2016-04-16T08:44:33.547Z,997.82
2016-04-16T08:45:33.503Z,997.9
2016-04-16T08:46:36.459Z,997.88
2016-04-16T08:47:36.415Z,997.89
2016-04-16T08:48:36.370Z,997.91
2016-04-16T08:49:36.310Z,997.96
2016-04-16T08:50:33.470Z,997.92
2016-04-16T08:51:33.254Z,997.92
2016-04-16T08:52:33.178Z,997.93
2016-04-16T08:53:33.134Z,997.99
2016-04-16T08:54:33.074Z,997.99
2016-04-16T08:55:36.045Z,997.97
2016-04-16T08:56:32.986Z,997.99
2016-04-16T08:57:32.941Z,997.98
2016-04-16T08:58:32.897Z,998
2016-04-16T08:59:32.852Z,998.03
2016-04-16T09:00:32.793Z,998.06
2016-04-16T09:01:32.764Z,998.02
2016-04-16T09:02:43.142Z,998.03
2016-04-16T09:03:32.676Z,998.02
2016-04-16T09:05:32.572Z,997.99
2016-04-16T09:06:35.575Z,997.95
2016-04-16T09:07:32.672Z,997.98
2016-04-16T09:08:32.424Z,998.05
2016-04-16T09:09:32.364Z,997.99
2016-04-16T09:10:32.335Z,997.88
2016-04-16T09:11:32.276Z,997.89
2016-04-16T09:12:32.232Z,997.95
2016-04-16T09:13:35.187Z,997.93
2016-04-16T09:14:32.143Z,997.92
2016-04-16T09:15:32.115Z,998
2016-04-16T09:16:32.040Z,998.01
2016-04-16T09:17:31.996Z,997.95
2016-04-16T09:18:31.950Z,997.9
2016-04-16T09:19:31.890Z,997.92
2016-04-16T09:20:31.862Z,997.95
2016-04-16T09:21:31.818Z,997.94
2016-04-16T09:22:34.773Z,997.89
2016-04-16T09:23:31.840Z,997.99
2016-04-16T09:24:31.654Z,997.97
2016-04-16T09:25:31.626Z,998.04
2016-04-16T09:26:31.581Z,998.07
2016-04-16T09:27:31.522Z,997.99
2016-04-16T09:28:31.478Z,997.96
2016-04-16T09:29:34.450Z,998.03
2016-04-16T09:30:34.421Z,998.01
2016-04-16T09:31:31.345Z,997.99
2016-04-16T09:32:31.286Z,997.98
2016-04-16T09:33:31.241Z,998.02
2016-04-16T09:34:31.400Z,997.99
2016-04-16T09:35:31.152Z,997.99
2016-04-16T09:36:31.108Z,998.07
2016-04-16T09:37:34.049Z,998.11
2016-04-16T09:38:34.005Z,998.1
2016-04-16T09:39:30.961Z,998.13
2016-04-16T09:40:30.916Z,998.1
2016-04-16T09:41:30.872Z,998.08
2016-04-16T09:42:30.812Z,998.13
2016-04-16T09:43:30.768Z,998.19
2016-04-16T09:44:30.723Z,998.22
2016-04-16T09:45:33.679Z,998.21
2016-04-16T09:46:33.635Z,998.21
2016-04-16T09:47:33.779Z,998.22
2016-04-16T09:48:33.531Z,998.24
2016-04-16T09:49:33.518Z,998.23
2016-04-16T09:50:30.646Z,998.18
2016-04-16T09:51:30.399Z,998.21
2016-04-16T09:52:33.355Z,998.23
2016-04-16T09:53:33.310Z,998.18
2016-04-16T09:54:30.251Z,998.28
2016-04-16T09:55:30.222Z,998.3
2016-04-16T09:56:30.162Z,998.28
2016-04-16T09:57:30.321Z,998.28
2016-04-16T09:58:30.089Z,998.31
2016-04-16T09:59:30.014Z,998.28
2016-04-16T10:00:29.985Z,998.26
2016-04-16T10:01:29.926Z,998.26
2016-04-16T10:02:29.882Z,998.28
2016-04-16T10:03:29.837Z,998.21
2016-04-16T10:04:29.808Z,998.23
2016-04-16T10:05:29.733Z,998.26
2016-04-16T10:06:29.705Z,998.24
2016-04-16T10:07:29.645Z,998.25
2016-04-16T10:08:29.586Z,998.23
2016-04-16T10:09:29.557Z,998.2
2016-04-16T10:10:29.513Z,998.22
2016-04-16T10:11:29.453Z,998.22
2016-04-16T10:12:29.408Z,998.27
2016-04-16T10:13:29.364Z,998.23
2016-04-16T10:14:29.321Z,998.22
2016-04-16T10:15:29.277Z,998.15
2016-04-16T10:16:29.216Z,998.17
2016-04-16T10:17:29.172Z,998.14
2016-04-16T10:18:29.127Z,998.16
2016-04-16T10:19:29.084Z,998.18
2016-04-16T10:20:32.039Z,998.16
2016-04-16T10:21:28.995Z,998.18
2016-04-16T10:22:28.935Z,998.2
2016-04-16T10:23:28.891Z,998.28
2016-04-16T10:24:32.066Z,998.27
2016-04-16T10:25:28.803Z,998.21
2016-04-16T10:26:28.759Z,998.28
2016-04-16T10:27:31.698Z,998.32
2016-04-16T10:28:31.654Z,998.28
2016-04-16T10:29:28.610Z,998.25
2016-04-16T10:30:31.566Z,998.24
2016-04-16T10:31:28.506Z,998.17
2016-04-16T10:32:28.665Z,998.23
2016-04-16T10:33:28.433Z,998.26
2016-04-16T10:34:28.577Z,998.24
2016-04-16T10:35:31.330Z,998.22
2016-04-16T10:36:28.286Z,998.23
2016-04-16T10:37:31.242Z,998.26
2016-04-16T10:38:28.181Z,998.2
2016-04-16T10:39:28.138Z,998.19
2016-04-16T10:40:28.140Z,998.21
2016-04-16T10:41:28.049Z,998.16
2016-04-16T10:42:28.005Z,998.14
2016-04-16T10:43:27.961Z,998.2
2016-04-16T10:44:27.901Z,998.23
2016-04-16T10:45:27.857Z,998.17
2016-04-16T10:46:27.813Z,998.23
2016-04-16T10:47:30.768Z,998.2
2016-04-16T10:48:27.724Z,998.21
2016-04-16T10:49:27.664Z,998.2
2016-04-16T10:50:27.620Z,998.23
2016-04-16T10:51:27.590Z,998.19
2016-04-16T10:52:27.531Z,998.18
2016-04-16T10:53:27.487Z,998.16
2016-04-16T10:54:27.443Z,998.24
2016-04-16T10:55:27.383Z,998.28
2016-04-16T10:56:27.354Z,998.25
2016-04-16T10:57:27.311Z,998.21
2016-04-16T10:58:27.251Z,998.1
2016-04-16T10:59:27.207Z,998.11
2016-04-16T11:00:27.148Z,998.05
2016-04-16T11:01:27.103Z,998.1
2016-04-16T11:02:27.059Z,998.06
2016-04-16T11:03:27.014Z,998.08
2016-04-16T11:04:26.970Z,998.07
2016-04-16T11:05:26.925Z,998.17
2016-04-16T11:06:26.866Z,998.09
2016-04-16T11:07:26.822Z,998.1
2016-04-16T11:08:26.778Z,998.13
2016-04-16T11:09:26.734Z,998.11
2016-04-16T11:10:29.689Z,998.19
2016-04-16T11:11:29.645Z,998.11
2016-04-16T11:12:26.601Z,998.12
2016-04-16T11:13:26.557Z,998.08
2016-04-16T11:14:26.496Z,998.09
2016-04-16T11:15:26.452Z,998.14
2016-04-16T11:16:26.408Z,998.14
2016-04-16T11:17:26.349Z,998.15
2016-04-16T11:18:29.320Z,998.1
2016-04-16T11:19:26.276Z,998.09
2016-04-16T11:20:26.216Z,998.09
2016-04-16T11:21:26.172Z,998.12
2016-04-16T11:22:26.128Z,998.13
2016-04-16T11:23:26.084Z,998.15
2016-04-16T11:24:26.024Z,998.14
2016-04-16T11:25:25.995Z,998.2
2016-04-16T11:26:25.935Z,998.18
2016-04-16T11:27:25.892Z,998.13
2016-04-16T11:28:28.831Z,998.21
2016-04-16T11:29:28.787Z,998.23
2016-04-16T11:30:25.758Z,998.22
2016-04-16T11:31:25.715Z,998.27
2016-04-16T11:32:25.655Z,998.2
2016-04-16T11:33:25.611Z,998.3
2016-04-16T11:34:25.567Z,998.27
2016-04-16T11:35:25.506Z,998.32
2016-04-16T11:36:25.462Z,998.31
2016-04-16T11:37:25.419Z,998.26
2016-04-16T11:38:25.374Z,998.29
2016-04-16T11:39:28.345Z,998.26
2016-04-16T11:40:25.286Z,998.27
2016-04-16T11:41:25.225Z,998.32
2016-04-16T11:42:25.182Z,998.27
2016-04-16T11:43:25.138Z,998.22
2016-04-16T11:44:25.093Z,998.27
2016-04-16T11:45:25.049Z,998.29
2016-04-16T11:46:24.989Z,998.27
2016-04-16T11:47:27.945Z,998.36
2016-04-16T11:48:27.916Z,998.35
2016-04-16T11:49:24.857Z,998.31
2016-04-16T11:50:24.856Z,998.38
2016-04-16T11:51:24.840Z,998.43
2016-04-16T11:52:24.841Z,998.42
2016-04-16T11:53:24.840Z,998.41
2016-04-16T11:54:24.855Z,998.42
2016-04-16T11:55:27.813Z,998.4
2016-04-16T11:56:24.784Z,998.35
2016-04-16T11:57:33.771Z,998.36
2016-04-16T11:58:24.727Z,998.37
2016-04-16T11:59:24.902Z,998.37
2016-04-16T12:00:24.660Z,998.44
2016-04-16T12:01:24.623Z,998.47
2016-04-16T12:02:24.568Z,998.48
2016-04-16T12:03:24.529Z,998.51
2016-04-16T12:04:24.491Z,998.51
2016-04-16T12:05:27.449Z,998.48
2016-04-16T12:06:27.407Z,998.48
2016-04-16T12:07:24.366Z,998.5
2016-04-16T12:08:24.526Z,998.48
2016-04-16T12:09:24.276Z,998.44
2016-04-16T12:10:24.426Z,998.5
2016-04-16T12:11:24.191Z,998.44
2016-04-16T12:12:24.133Z,998.52
2016-04-16T12:13:24.089Z,998.47
2016-04-16T12:14:24.045Z,998.49
2016-04-16T12:15:27.005Z,998.47
2016-04-16T12:16:23.943Z,998.5
2016-04-16T12:17:23.899Z,998.48
2016-04-16T12:18:23.856Z,998.54
2016-04-16T12:19:23.811Z,998.5
2016-04-16T12:20:23.768Z,998.44
2016-04-16T12:21:23.723Z,998.45
2016-04-16T12:22:23.695Z,998.45
2016-04-16T12:23:23.635Z,998.48
2016-04-16T12:24:23.575Z,998.5
2016-04-16T12:25:26.550Z,998.53
2016-04-16T12:26:23.487Z,998.61
2016-04-16T12:27:23.442Z,998.57
2016-04-16T12:28:23.399Z,998.66
2016-04-16T12:29:23.355Z,998.61
2016-04-16T12:30:23.310Z,998.61
2016-04-16T12:31:23.250Z,998.67
2016-04-16T12:32:23.222Z,998.67
2016-04-16T12:33:23.163Z,998.53